Time;durP1;ratioP1;P1;durP2;ratioP2;P2;SDS_P1;SDS_P2;PMS_P1;PMS_P2;Temp;Humidity;BMP_temperature;BMP_pressure;BME280_temperature;BME280_humidity;BME280_pressure;Samples;Min_cycle;Max_cycle;Signal;HPM_P1;HPM_P2
2023/04/08 00:01:27;;;;;;;34.67;25.05;;;;;;;9.47;97.97;102124.47;5092448;28;20028;-47
2023/04/08 00:03:52;;;;;;;36.38;25.10;;;;;;;9.48;97.82;102131.66;5093134;28;20031;-45
2023/04/08 00:06:18;;;;;;;33.83;23.23;;;;;;;9.51;98.18;102131.13;5093377;28;20028;-48
2023/04/08 00:08:43;;;;;;;33.28;24.30;;;;;;;9.50;98.22;102125.84;5093639;28;20103;-46
2023/04/08 00:11:08;;;;;;;37.00;25.42;;;;;;;9.47;99.15;102134.69;5093171;28;20678;-47
2023/04/08 00:13:34;;;;;;;34.97;25.42;;;;;;;9.45;98.59;102132.19;5092689;28;20436;-45
2023/04/08 00:15:59;;;;;;;34.70;25.27;;;;;;;9.43;98.86;102130.78;5092956;28;20501;-47
2023/04/08 00:18:25;;;;;;;37.85;24.85;;;;;;;9.44;99.51;102127.78;5092998;28;20526;-45
2023/04/08 00:20:51;;;;;;;36.42;25.70;;;;;;;9.46;99.30;102130.28;5093060;28;20024;-47
2023/04/08 00:23:16;;;;;;;39.08;26.50;;;;;;;9.50;99.59;102135.00;5092763;28;20028;-44
2023/04/08 00:25:42;;;;;;;38.60;25.77;;;;;;;9.51;99.51;102131.13;5093332;28;20034;-46
2023/04/08 00:28:07;;;;;;;35.45;26.00;;;;;;;9.51;99.54;102130.28;5092975;28;20070;-48
2023/04/08 00:30:33;;;;;;;39.13;26.67;;;;;;;9.49;99.89;102133.34;5093086;28;20077;-45
2023/04/08 00:32:58;;;;;;;35.03;25.90;;;;;;;9.49;99.43;102136.09;5091254;28;20036;-43
2023/04/08 00:35:24;;;;;;;39.38;27.25;;;;;;;9.48;99.66;102133.59;5090356;28;20035;-47
2023/04/08 00:37:50;;;;;;;38.60;25.77;;;;;;;9.48;99.51;102131.66;5092786;28;20115;-45
2023/04/08 00:40:15;;;;;;;38.53;27.02;;;;;;;9.48;99.95;102128.09;5092527;28;20486;-44
2023/04/08 00:42:41;;;;;;;38.00;26.02;;;;;;;9.46;100.00;102130.28;5092290;28;20040;-45
2023/04/08 00:45:07;;;;;;;38.75;27.45;;;;;;;9.48;100.00;102134.44;5092363;28;20024;-44
2023/04/08 00:47:34;;;;;;;37.70;27.33;;;;;;;9.48;100.00;102141.91;5092410;28;20024;-46
2023/04/08 00:49:59;;;;;;;37.00;27.13;;;;;;;9.48;100.00;102134.44;5092388;28;20028;-45
2023/04/08 00:52:25;;;;;;;36.42;26.23;;;;;;;9.47;100.00;102135.53;5092656;28;20035;-46
2023/04/08 00:54:50;;;;;;;36.00;26.73;;;;;;;9.48;100.00;102137.19;5092321;28;20028;-45
2023/04/08 00:57:15;;;;;;;35.30;26.02;;;;;;;9.44;100.00;102136.06;5092241;28;20017;-47
2023/04/08 00:59:41;;;;;;;37.35;26.80;;;;;;;9.38;100.00;102141.81;5092266;28;20031;-48
2023/04/08 01:02:22;;;;;;;37.58;25.73;;;;;;;9.36;100.00;102134.63;5092253;28;20114;-45
2023/04/08 01:04:58;;;;;;;36.72;27.80;;;;;;;9.36;100.00;102140.16;5092566;28;20028;-48
2023/04/08 01:07:33;;;;;;;36.97;27.60;;;;;;;9.22;100.00;102108.56;5092362;28;20031;-44
2023/04/08 01:10:04;;;;;;;35.70;26.35;;;;;;;9.41;100.00;102133.00;5092160;28;20158;-44
2023/04/08 01:12:31;;;;;;;37.17;27.45;;;;;;;9.43;100.00;102145.47;5091945;28;20059;-44
2023/04/08 01:15:04;;;;;;;37.40;27.63;;;;;;;9.43;100.00;102137.16;5091791;28;20089;-48
2023/04/08 01:17:31;;;;;;;35.92;27.48;;;;;;;9.46;100.00;102139.38;5092272;28;20127;-45
2023/04/08 01:20:00;;;;;;;39.22;28.38;;;;;;;9.46;100.00;102147.66;5092172;28;20047;-47
2023/04/08 01:22:29;;;;;;;37.97;28.10;;;;;;;9.49;100.00;102140.81;5092154;28;20120;-45
2023/04/08 01:25:01;;;;;;;39.00;28.63;;;;;;;9.47;100.00;102140.22;5092192;28;20064;-46
2023/04/08 01:27:31;;;;;;;38.53;28.73;;;;;;;9.45;100.00;102143.22;5092089;28;20024;-45
2023/04/08 01:29:58;;;;;;;36.97;27.35;;;;;;;9.44;100.00;102140.75;5088418;28;20047;-43
2023/04/08 01:32:26;;;;;;;38.10;27.23;;;;;;;9.43;100.00;102145.47;5091507;28;20028;-45
2023/04/08 01:34:53;;;;;;;39.28;27.42;;;;;;;9.42;100.00;102143.78;5091999;28;20032;-46
2023/04/08 01:37:20;;;;;;;37.75;27.17;;;;;;;9.42;100.00;102148.47;5092183;28;20051;-47
2023/04/08 01:39:47;;;;;;;37.33;28.05;;;;;;;9.39;100.00;102143.50;5090843;28;20123;-47
2023/04/08 01:42:14;;;;;;;39.75;28.73;;;;;;;9.28;100.00;102134.28;5091983;28;20059;-46
2023/04/08 01:44:40;;;;;;;40.35;29.85;;;;;;;9.39;100.00;102154.53;5091646;28;20032;-44
2023/04/08 01:47:05;;;;;;;38.00;27.25;;;;;;;9.40;100.00;102158.97;5091768;28;20024;-46
2023/04/08 01:49:31;;;;;;;39.70;27.38;;;;;;;9.43;100.00;102159.28;5092141;28;20016;-44
2023/04/08 01:51:57;;;;;;;38.08;27.30;;;;;;;9.43;100.00;102155.66;5092141;28;20039;-46
2023/04/08 01:54:23;;;;;;;36.75;26.95;;;;;;;9.47;100.00;102162.31;5091934;28;20048;-44
2023/04/08 01:56:53;;;;;;;38.22;28.20;;;;;;;9.46;100.00;102161.47;5091960;28;20060;-47
2023/04/08 01:59:20;;;;;;;39.30;28.88;;;;;;;9.42;100.00;102152.06;5092004;28;20024;-44
2023/04/08 02:01:46;;;;;;;37.45;28.15;;;;;;;9.47;100.00;102162.31;5091792;28;20110;-45
2023/04/08 02:04:12;;;;;;;38.08;27.35;;;;;;;9.50;100.00;102164.53;5091410;28;20060;-44
2023/04/08 02:06:37;;;;;;;37.15;27.80;;;;;;;9.50;100.00;102164.53;5091663;28;20071;-46
2023/04/08 02:09:04;;;;;;;38.30;27.45;;;;;;;9.51;100.00;102163.44;5091357;28;20051;-44
2023/04/08 02:11:30;;;;;;;37.67;26.75;;;;;;;9.45;100.00;102157.03;5091379;28;20028;-43
2023/04/08 02:13:57;;;;;;;37.80;27.38;;;;;;;9.50;100.00;102154.34;5091291;28;20020;-44
2023/04/08 02:16:37;;;;;;;38.55;27.52;;;;;;;9.56;100.00;102166.25;5091487;28;20427;-44
2023/04/08 02:19:09;;;;;;;36.67;27.95;;;;;;;9.50;100.00;102156.25;5091477;28;20040;-45
2023/04/08 02:21:45;;;;;;;37.70;27.63;;;;;;;9.54;100.00;102159.34;5091275;28;20024;-45
2023/04/08 02:24:12;;;;;;;37.60;27.35;;;;;;;9.48;100.00;102159.28;5093406;28;20035;-45
2023/04/08 02:26:40;;;;;;;37.92;27.85;;;;;;;9.51;100.00;102167.06;5090962;28;20039;-44
2023/04/08 02:29:14;;;;;;;39.95;28.98;;;;;;;9.51;100.00;102163.44;5095161;28;20028;-44
2023/04/08 02:31:42;;;;;;;;;;;;;;;9.62;100.00;102162.41;5095342;28;20488;-44
2023/04/08 02:34:10;;;;;;;39.30;27.90;;;;;;;9.47;100.00;102165.09;5094703;28;20537;-47
2023/04/08 02:36:36;;;;;;;37.25;27.95;;;;;;;9.51;100.00;102177.25;5094880;28;20111;-48
2023/04/08 02:39:02;;;;;;;38.00;28.67;;;;;;;9.54;100.00;102170.38;5094682;28;20082;-44
2023/04/08 02:41:29;;;;;;;38.30;27.10;;;;;;;9.57;100.00;102176.22;5094932;28;20071;-45
2023/04/08 02:43:55;;;;;;;39.58;28.42;;;;;;;9.55;100.00;102161.81;5094633;28;20063;-45
2023/04/08 02:46:20;;;;;;;40.15;29.38;;;;;;;9.58;100.00;102166.81;5094473;28;20437;-47
2023/04/08 02:48:46;;;;;;;40.38;29.40;;;;;;;9.54;100.00;102156.56;5094452;28;20518;-47
2023/04/08 02:51:11;;;;;;;38.22;27.40;;;;;;;9.52;100.00;102168.72;5094764;28;20607;-47
2023/04/08 02:53:36;;;;;;;39.95;28.58;;;;;;;9.49;100.00;102171.19;5094498;28;20039;-45
2023/04/08 02:56:02;;;;;;;38.28;27.05;;;;;;;9.50;100.00;102176.44;5094628;28;20488;-44
2023/04/08 02:58:27;;;;;;;37.30;27.67;;;;;;;9.52;100.00;102177.00;5094650;28;20039;-44
2023/04/08 03:00:52;;;;;;;41.03;28.60;;;;;;;9.55;100.00;102181.16;5094639;28;20032;-48
2023/04/08 03:03:18;;;;;;;38.17;28.02;;;;;;;9.55;100.00;102181.16;5092446;28;20053;-48
2023/04/08 03:05:43;;;;;;;39.50;27.48;;;;;;;9.50;100.00;102170.06;5074079;28;20032;-48
2023/04/08 03:08:08;;;;;;;38.13;28.70;;;;;;;9.46;100.00;102175.28;5073691;28;20029;-45
2023/04/08 03:10:34;;;;;;;37.72;28.40;;;;;;;9.43;100.00;102177.75;5073194;28;20017;-43
2023/04/08 03:12:59;;;;;;;40.08;28.05;;;;;;;9.35;100.00;102185.44;5073456;28;20115;-45
2023/04/08 03:15:24;;;;;;;37.67;27.52;;;;;;;9.31;100.00;102183.47;5073528;28;20028;-45
2023/04/08 03:17:50;;;;;;;37.92;27.85;;;;;;;9.32;100.00;102174.91;5073475;28;20398;-48
2023/04/08 03:20:15;;;;;;;41.60;29.15;;;;;;;9.31;100.00;102175.19;5073750;28;20477;-45
2023/04/08 03:22:40;;;;;;;39.05;28.98;;;;;;;9.28;100.00;102170.19;5069471;28;20063;-44
2023/04/08 03:25:06;;;;;;;37.80;29.08;;;;;;;9.32;100.00;102174.09;5073072;28;20021;-44
2023/04/08 03:27:31;;;;;;;37.30;27.83;;;;;;;9.30;100.00;102170.75;5073380;28;20492;-48
2023/04/08 03:29:57;;;;;;;38.25;28.17;;;;;;;9.25;100.00;102168.78;5073336;28;20028;-48
2023/04/08 03:32:23;;;;;;;36.70;27.20;;;;;;;9.26;100.00;102170.47;5073091;28;20028;-44
2023/04/08 03:34:50;;;;;;;39.17;28.45;;;;;;;9.25;100.00;102171.56;5073405;28;20025;-44
2023/04/08 03:37:16;;;;;;;39.75;27.88;;;;;;;9.24;100.00;102172.66;5073284;28;20127;-45
2023/04/08 03:39:41;;;;;;;40.75;29.42;;;;;;;9.23;100.00;102182.03;5073162;28;20040;-46
2023/04/08 03:42:06;;;;;;;38.92;28.35;;;;;;;9.25;100.00;102179.03;5073337;28;20037;-47
2023/04/08 03:44:32;;;;;;;39.28;27.60;;;;;;;9.19;100.00;102187.25;5073138;28;20111;-45
2023/04/08 03:46:57;;;;;;;38.35;28.05;;;;;;;9.18;100.00;102185.59;5072932;28;20030;-47
2023/04/08 03:49:22;;;;;;;37.67;28.10;;;;;;;9.18;100.00;102185.59;5072840;28;20390;-45
2023/04/08 03:51:47;;;;;;;39.90;28.33;;;;;;;9.18;100.00;102190.28;5072901;28;20460;-48
2023/04/08 03:54:13;;;;;;;40.95;28.65;;;;;;;9.14;100.00;102192.75;5072983;28;20036;-45
2023/04/08 03:56:38;;;;;;;40.63;28.20;;;;;;;9.12;100.00;102197.69;5072878;28;20082;-45
2023/04/08 03:59:04;;;;;;;40.47;28.83;;;;;;;9.11;100.00;102196.03;5072773;28;20029;-45
2023/04/08 04:01:31;;;;;;;39.00;28.80;;;;;;;9.10;100.00;102194.34;5072728;28;20102;-48
2023/04/08 04:03:56;;;;;;;38.65;28.52;;;;;;;9.12;100.00;102192.16;5072680;28;20146;-43
2023/04/08 04:06:21;;;;;;;42.00;28.88;;;;;;;9.09;100.00;102184.41;5072737;28;20472;-45
2023/04/08 04:08:47;;;;;;;42.05;29.30;;;;;;;9.05;100.00;102200.66;5072734;28;20108;-45
2023/04/08 04:11:12;;;;;;;39.95;28.33;;;;;;;8.99;100.00;102189.84;5072454;28;20460;-44
2023/04/08 04:13:37;;;;;;;43.15;30.63;;;;;;;8.98;100.00;102186.25;5072082;28;20028;-46
2023/04/08 04:16:03;;;;;;;42.42;30.35;;;;;;;9.02;100.00;102195.66;5072268;28;20448;-46
2023/04/08 04:18:28;;;;;;;44.97;31.55;;;;;;;9.00;100.00;102203.38;5069259;28;20028;-44
2023/04/08 04:20:53;;;;;;;44.67;30.98;;;;;;;9.00;100.00;102202.53;5070783;28;20025;-45
2023/04/08 04:23:18;;;;;;;44.75;30.83;;;;;;;9.01;100.00;102213.34;5072322;28;20115;-45
2023/04/08 04:25:44;;;;;;;44.53;30.67;;;;;;;8.98;100.00;102213.84;5072096;28;20025;-46
2023/04/08 04:28:09;;;;;;;46.47;31.48;;;;;;;8.98;100.00;102218.53;5072367;28;20031;-45
2023/04/08 04:30:39;;;;;;;46.10;30.58;;;;;;;8.96;100.00;102221.56;5072145;28;20110;-45
2023/04/08 04:33:05;;;;;;;46.75;31.38;;;;;;;8.94;100.00;102220.16;5071891;28;20024;-44
2023/04/08 04:35:31;;;;;;;46.08;31.08;;;;;;;8.96;100.00;102221.56;5071906;28;20032;-44
2023/04/08 04:37:57;;;;;;;42.55;29.08;;;;;;;8.96;100.00;102226.25;5071960;28;20340;-44
2023/04/08 04:40:22;;;;;;;44.47;29.70;;;;;;;8.96;100.00;102231.78;5072123;28;20371;-44
2023/04/08 04:42:47;;;;;;;43.22;28.52;;;;;;;8.95;100.00;102232.88;5072058;28;20028;-47
2023/04/08 04:45:13;;;;;;;42.70;28.88;;;;;;;8.96;100.00;102234.53;5071703;28;20454;-45
2023/04/08 04:47:38;;;;;;;41.63;28.67;;;;;;;8.98;100.00;102241.44;5071599;28;20032;-45
2023/04/08 04:50:04;;;;;;;39.03;28.48;;;;;;;8.97;100.00;102244.47;5072029;28;20027;-45
2023/04/08 04:52:30;;;;;;;38.28;27.83;;;;;;;8.94;100.00;102236.72;5071543;28;20039;-46
2023/04/08 04:54:56;;;;;;;38.88;27.75;;;;;;;8.91;100.00;102240.84;5071931;28;20029;-44
2023/04/08 04:57:21;;;;;;;38.53;27.67;;;;;;;8.90;100.00;102240.00;5071953;28;20089;-44
2023/04/08 04:59:47;;;;;;;37.67;28.60;;;;;;;8.89;100.00;102249.34;5071803;28;20056;-48
2023/04/08 05:02:12;;;;;;;37.95;27.75;;;;;;;8.92;100.00;102249.94;5071464;28;20020;-47
2023/04/08 05:04:37;;;;;;;35.63;27.13;;;;;;;8.93;100.00;102251.59;5071816;28;20055;-48
2023/04/08 05:07:03;;;;;;;39.50;28.45;;;;;;;8.91;100.00;102246.34;5071857;28;20119;-44
2023/04/08 05:09:28;;;;;;;37.55;28.67;;;;;;;8.90;100.00;102253.78;5071501;28;20055;-45
2023/04/08 05:11:53;;;;;;;38.17;27.98;;;;;;;8.86;100.00;102249.06;5071423;28;20029;-46
2023/04/08 05:14:19;;;;;;;39.08;27.88;;;;;;;8.88;100.00;102249.63;5069813;28;20056;-43
2023/04/08 05:16:44;;;;;;;37.78;28.00;;;;;;;8.92;100.00;102255.47;5068883;28;20021;-46
2023/04/08 05:19:10;;;;;;;38.50;27.48;;;;;;;8.93;100.00;102254.38;5071613;28;20468;-45
2023/04/08 05:21:35;;;;;;;37.05;26.45;;;;;;;8.92;100.00;102256.31;5071477;28;20033;-47
2023/04/08 05:24:01;;;;;;;34.92;26.42;;;;;;;8.91;100.00;102265.69;5071143;28;20020;-47
2023/04/08 05:26:26;;;;;;;36.97;26.38;;;;;;;8.94;100.00;102272.59;5071117;28;20036;-46
2023/04/08 05:28:51;;;;;;;35.10;26.13;;;;;;;8.97;100.00;102272.09;5081481;28;20032;-47
2023/04/08 05:31:18;;;;;;;34.17;26.33;;;;;;;9.00;100.00;102266.88;5091750;28;20024;-45
2023/04/08 05:33:43;;;;;;;34.50;25.65;;;;;;;9.02;100.00;102269.38;5091609;28;20032;-44
2023/04/08 05:36:12;;;;;;;35.22;26.33;;;;;;;9.11;100.00;102275.25;5091475;28;20118;-46
2023/04/08 05:38:39;;;;;;;35.55;26.35;;;;;;;9.19;100.00;102275.59;5090789;28;20117;-47
2023/04/08 05:41:05;;;;;;;35.15;26.65;;;;;;;9.19;99.46;102269.25;5078249;28;20032;-47
2023/04/08 05:43:32;;;;;;;36.45;27.50;;;;;;;9.09;99.43;102267.22;5071251;28;20115;-47
2023/04/08 05:45:57;;;;;;;36.28;26.90;;;;;;;9.13;99.70;102276.66;5071334;28;20107;-46
2023/04/08 05:48:23;;;;;;;36.17;25.83;;;;;;;9.20;99.56;102277.28;5071437;28;20442;-45
2023/04/08 05:50:48;;;;;;;35.67;26.52;;;;;;;9.19;99.08;102281.13;5071171;28;20033;-47
2023/04/08 05:53:13;;;;;;;34.42;25.27;;;;;;;9.15;98.66;102280.00;5070015;28;20025;-45
2023/04/08 05:55:39;;;;;;;34.30;25.67;;;;;;;9.10;98.81;102290.16;5071325;28;20209;-44
2023/04/08 05:58:05;;;;;;;39.08;26.48;;;;;;;9.03;97.98;102293.13;5070525;28;20051;-44
2023/04/08 06:00:30;;;;;;;36.25;26.58;;;;;;;8.96;98.84;102292.50;5073743;28;20040;-45
2023/04/08 06:02:56;;;;;;;38.17;27.95;;;;;;;8.87;98.67;102297.63;5075309;28;20032;-47
2023/04/08 06:05:21;;;;;;;36.42;27.42;;;;;;;8.87;99.62;102300.41;5074916;28;20150;-45
2023/04/08 06:07:46;;;;;;;34.70;25.65;;;;;;;8.90;100.00;102292.44;5075108;28;20024;-45
2023/04/08 06:10:11;;;;;;;37.22;26.85;;;;;;;8.98;100.00;102302.19;5074936;28;20096;-43
2023/04/08 06:12:38;;;;;;;39.60;27.77;;;;;;;9.04;99.59;102300.31;5074684;28;20083;-44
2023/04/08 06:15:04;;;;;;;36.97;27.27;;;;;;;9.07;99.21;102304.47;5074740;28;20656;-45
2023/04/08 06:17:30;;;;;;;37.45;26.95;;;;;;;9.08;99.18;102306.97;5074564;28;20035;-45
2023/04/08 06:19:55;;;;;;;37.10;27.25;;;;;;;9.07;98.75;102310.00;5074608;28;20024;-44
2023/04/08 06:22:20;;;;;;;37.45;27.60;;;;;;;9.08;98.13;102303.38;5073212;28;20025;-44
2023/04/08 06:24:47;;;;;;;39.65;28.88;;;;;;;9.08;98.02;102309.72;5074463;28;20066;-44
2023/04/08 06:27:12;;;;;;;36.90;27.38;;;;;;;9.08;98.56;102312.47;5074537;28;20040;-44
2023/04/08 06:29:37;;;;;;;37.88;27.98;;;;;;;9.11;98.81;102311.16;5070168;28;20119;-44
2023/04/08 06:32:03;;;;;;;38.42;27.50;;;;;;;9.12;98.61;102313.66;5074543;28;20056;-47
2023/04/08 06:34:28;;;;;;;39.05;28.45;;;;;;;9.18;98.47;102317.28;5074448;28;20094;-43
2023/04/08 06:36:53;;;;;;;40.70;27.60;;;;;;;9.15;98.42;102317.81;5074557;28;20108;-46
2023/04/08 06:39:20;;;;;;;38.38;27.27;;;;;;;9.14;99.19;102325.28;5074170;28;20044;-44
2023/04/08 06:41:45;;;;;;;37.88;27.42;;;;;;;9.15;98.47;102328.84;5074348;28;20409;-44
2023/04/08 06:44:10;;;;;;;34.92;26.02;;;;;;;9.25;98.86;102328.13;5073897;28;20492;-44
2023/04/08 06:46:36;;;;;;;37.40;27.35;;;;;;;9.26;99.44;102333.38;5074160;28;20071;-45
2023/04/08 06:49:03;;;;;;;38.15;26.85;;;;;;;9.32;99.22;102337.03;5074294;28;20020;-47
2023/04/08 06:51:28;;;;;;;39.90;28.50;;;;;;;9.40;98.46;102338.50;5074299;28;20032;-45
2023/04/08 06:53:54;;;;;;;39.35;27.38;;;;;;;9.42;97.90;102339.06;5072846;28;20028;-46
2023/04/08 06:56:21;;;;;;;38.95;27.33;;;;;;;9.39;97.15;102334.88;5074156;28;20654;-46
2023/04/08 06:58:46;;;;;;;37.53;26.92;;;;;;;9.39;97.56;102343.19;5074179;28;20051;-47
2023/04/08 07:01:12;;;;;;;39.17;26.60;;;;;;;9.41;96.94;102349.28;5073992;28;20468;-45
2023/04/08 07:03:37;;;;;;;36.40;26.65;;;;;;;9.38;96.74;102347.03;5073958;28;20028;-43
2023/04/08 07:06:03;;;;;;;39.63;27.30;;;;;;;9.31;97.19;102350.00;5073842;28;20040;-43
2023/04/08 07:08:28;;;;;;;38.80;27.70;;;;;;;9.16;97.01;102347.09;5073535;28;20025;-45
2023/04/08 07:10:54;;;;;;;36.80;26.65;;;;;;;9.21;97.29;102367.31;5075614;28;20032;-44
2023/04/08 07:13:19;;;;;;;34.97;26.20;;;;;;;9.25;97.40;102364.03;5092279;28;20047;-44
2023/04/08 07:15:44;;;;;;;40.72;30.33;;;;;;;9.25;97.55;102375.91;5092417;28;20024;-44
2023/04/08 07:18:11;;;;;;;35.92;26.70;;;;;;;9.23;96.32;102372.56;5092416;28;20042;-43
2023/04/08 07:20:37;;;;;;;35.83;26.77;;;;;;;9.20;97.80;102381.38;5092415;28;20024;-43
2023/04/08 07:23:02;;;;;;;37.95;26.38;;;;;;;9.21;96.39;102375.59;5092057;28;20043;-44
2023/04/08 07:25:28;;;;;;;37.97;26.83;;;;;;;9.15;96.27;102384.91;5087479;28;20127;-43
2023/04/08 07:27:53;;;;;;;39.50;28.00;;;;;;;9.03;96.73;102378.69;5092122;28;20039;-43
2023/04/08 07:30:18;;;;;;;36.17;25.70;;;;;;;9.05;98.52;102384.81;5090753;28;20093;-42
2023/04/08 07:32:43;;;;;;;34.00;24.42;;;;;;;9.13;98.00;102395.38;5092301;28;20039;-44
2023/04/08 07:35:09;;;;;;;33.28;23.98;;;;;;;9.17;97.10;102395.69;5092216;28;20056;-44
2023/04/08 07:37:34;;;;;;;35.55;25.55;;;;;;;9.21;96.56;102394.06;5092091;28;20039;-43
2023/04/08 07:40:00;;;;;;;34.83;24.67;;;;;;;9.23;97.34;102391.06;5091858;28;20125;-44
2023/04/08 07:42:26;;;;;;;32.63;23.70;;;;;;;9.28;96.64;102389.19;5092067;28;20031;-44
2023/04/08 07:44:51;;;;;;;34.70;24.48;;;;;;;9.38;95.83;102398.69;5092055;28;20047;-43
2023/04/08 07:47:16;;;;;;;36.13;24.50;;;;;;;9.42;95.85;102395.16;5092016;28;20032;-43
2023/04/08 07:49:42;;;;;;;35.35;25.45;;;;;;;9.47;95.52;102399.88;5092015;28;20118;-43
2023/04/08 07:52:07;;;;;;;33.72;24.38;;;;;;;9.46;95.64;102409.28;5092087;28;20020;-43
2023/04/08 07:54:35;;;;;;;32.03;24.27;;;;;;;9.34;95.91;102406.66;5092029;28;20069;-43
2023/04/08 07:57:01;;;;;;;34.28;23.58;;;;;;;9.27;96.84;102401.34;5091741;28;20038;-43
2023/04/08 07:59:27;;;;;;;33.55;25.00;;;;;;;9.30;96.66;102411.03;5087473;28;20035;-44
2023/04/08 08:01:53;;;;;;;32.17;24.05;;;;;;;9.30;97.74;102405.50;5071594;28;20036;-43
2023/04/08 08:04:18;;;;;;;34.42;25.13;;;;;;;9.26;96.69;102409.91;5071499;28;20134;-44
2023/04/08 08:06:43;;;;;;;33.95;25.38;;;;;;;9.24;96.18;102403.78;5071382;28;20024;-44
2023/04/08 08:09:09;;;;;;;30.80;23.45;;;;;;;9.32;95.43;102415.19;5071377;28;20390;-44
2023/04/08 08:11:34;;;;;;;30.23;23.60;;;;;;;9.32;94.73;102411.59;5071314;28;20682;-44
2023/04/08 08:13:59;;;;;;;29.55;22.98;;;;;;;9.24;95.95;102418.41;5071504;28;20052;-43
2023/04/08 08:16:28;;;;;;;32.35;23.38;;;;;;;9.17;96.40;102417.78;5071347;28;20689;-49
2023/04/08 08:18:54;;;;;;;36.53;26.00;;;;;;;9.18;96.54;102416.69;5087410;28;20032;-47
2023/04/08 08:21:19;;;;;;;32.03;23.45;;;;;;;9.23;96.74;102413.97;5089251;28;20106;-45
2023/04/08 08:23:44;;;;;;;29.75;22.90;;;;;;;9.29;96.21;102418.50;5091189;28;20800;-42
2023/04/08 08:26:10;;;;;;;31.17;22.45;;;;;;;9.33;96.31;102422.38;5078725;28;20020;-43
2023/04/08 08:28:35;;;;;;;32.55;24.25;;;;;;;9.36;95.81;102432.06;5086164;28;20138;-44
2023/04/08 08:31:02;;;;;;;33.88;24.77;;;;;;;9.40;95.77;102432.41;5090232;28;20028;-44
2023/04/08 08:33:27;;;;;;;32.67;24.20;;;;;;;9.46;95.37;102434.94;5091099;28;20366;-43
2023/04/08 08:35:53;;;;;;;35.33;25.88;;;;;;;9.50;94.84;102435.25;5089146;28;20035;-46
2023/04/08 08:38:18;;;;;;;34.15;25.33;;;;;;;9.53;94.37;102426.47;5087580;28;20047;-44
2023/04/08 08:40:44;;;;;;;30.83;24.35;;;;;;;9.55;93.40;102445.53;5090547;28;20402;-44
2023/04/08 08:43:10;;;;;;;37.05;27.05;;;;;;;9.52;93.51;102442.22;5084775;28;20028;-43
2023/04/08 08:45:40;;;;;;;35.85;25.80;;;;;;;9.36;94.16;102443.97;5086521;28;20024;-44
2023/04/08 08:48:06;;;;;;;33.83;25.85;;;;;;;9.32;94.58;102451.09;5080051;28;20145;-45
2023/04/08 08:50:32;;;;;;;31.20;24.15;;;;;;;9.35;95.17;102450.59;5090244;28;20115;-44
2023/04/08 08:52:57;;;;;;;30.02;23.17;;;;;;;9.43;94.43;102451.22;5089743;28;20103;-45
2023/04/08 08:55:22;;;;;;;39.33;29.25;;;;;;;9.50;93.61;102463.75;5082725;28;20467;-44
2023/04/08 08:57:51;;;;;;;37.67;27.80;;;;;;;9.60;93.73;102456.66;5088331;28;20028;-44
2023/04/08 09:00:17;;;;;;;35.20;27.45;;;;;;;9.69;93.29;102457.84;5089879;28;20043;-45
2023/04/08 09:02:42;;;;;;;31.38;23.85;;;;;;;9.73;92.52;102461.75;5088448;28;20107;-44
2023/04/08 09:05:07;;;;;;;31.08;24.15;;;;;;;9.60;93.38;102443.66;5080056;28;20120;-44
2023/04/08 09:07:40;;;;;;;32.25;24.63;;;;;;;9.72;93.52;102449.06;5089204;28;20380;-44
2023/04/08 09:10:06;;;;;;;32.27;24.93;;;;;;;9.86;92.16;102462.44;5089962;28;20028;-45
2023/04/08 09:12:32;;;;;;;31.83;24.98;;;;;;;9.78;91.95;102464.59;5076765;28;20021;-44
2023/04/08 09:15:07;;;;;;;32.75;24.55;;;;;;;9.78;92.39;102469.25;5082587;28;20524;-45
2023/04/08 09:17:40;;;;;;;31.60;24.50;;;;;;;9.76;92.14;102472.28;5090090;28;20039;-44
2023/04/08 09:20:10;;;;;;;28.98;22.60;;;;;;;9.74;91.92;102465.38;5089924;28;20042;-44
2023/04/08 09:22:55;;;;;;;30.35;22.75;;;;;;;9.92;91.86;102466.94;5089449;28;20028;-44
2023/04/08 09:25:24;;;;;;;28.95;22.83;;;;;;;9.94;90.17;102476.63;5087784;28;20032;-44
2023/04/08 09:27:50;;;;;;;29.00;23.38;;;;;;;9.93;90.67;102474.97;5089475;28;20189;-45
2023/04/08 09:30:16;;;;;;;33.20;24.05;;;;;;;10.05;90.63;102472.03;5088665;28;20027;-44
2023/04/08 09:32:50;;;;;;;31.63;24.85;;;;;;;10.10;89.66;102479.53;5091603;28;20027;-43
2023/04/08 09:35:17;;;;;;;28.60;22.63;;;;;;;10.12;89.92;102475.41;5091552;28;20028;-44
2023/04/08 09:37:42;;;;;;;29.35;23.00;;;;;;;10.10;90.57;102482.28;5093823;28;20031;-41
2023/04/08 09:40:08;;;;;;;29.92;22.65;;;;;;;10.16;89.79;102484.00;5092838;28;20048;-42
2023/04/08 09:42:38;;;;;;;30.95;24.55;;;;;;;10.20;90.31;102478.81;5092529;28;20114;-42
2023/04/08 09:45:05;;;;;;;29.98;23.67;;;;;;;10.24;89.39;102480.78;5092654;28;20028;-41
2023/04/08 09:47:37;;;;;;;30.75;24.55;;;;;;;10.25;89.53;102495.44;5091871;28;20052;-42
2023/04/08 09:50:07;;;;;;;29.52;24.40;;;;;;;10.18;88.79;102498.41;5088996;28;20024;-41
2023/04/08 09:52:45;;;;;;;28.75;23.48;;;;;;;10.12;89.04;102496.69;5091381;28;20489;-44
2023/04/08 09:55:20;;;;;;;30.60;24.67;;;;;;;10.17;88.83;102502.25;5092245;28;20485;-43
2023/04/08 09:57:54;;;;;;;30.15;23.60;;;;;;;10.21;88.65;102499.81;5092749;28;20504;-42
2023/04/08 10:00:23;;;;;;;29.98;25.10;;;;;;;10.17;88.89;102504.22;5092326;28;20043;-43
2023/04/08 10:02:57;;;;;;;30.88;24.88;;;;;;;10.15;88.16;102482.34;5092665;28;20031;-42
2023/04/08 10:05:23;;;;;;;30.67;25.30;;;;;;;10.24;88.59;102489.06;5092650;28;20024;-42
2023/04/08 10:07:49;;;;;;;30.67;25.27;;;;;;;10.22;87.59;102491.25;5092412;28;20023;-42
2023/04/08 10:10:15;;;;;;;30.52;24.73;;;;;;;10.24;88.57;102497.38;5092019;28;20552;-47
2023/04/08 10:12:40;;;;;;;30.40;25.20;;;;;;;10.25;87.57;102495.44;5092157;28;20054;-43
2023/04/08 10:15:23;;;;;;;31.05;25.50;;;;;;;10.31;87.20;102499.88;5092780;28;20169;-42
2023/04/08 10:17:48;;;;;;;31.17;24.90;;;;;;;10.32;87.49;102490.50;5093273;28;20024;-42
2023/04/08 10:20:49;;;;;;;30.58;24.35;;;;;;;10.56;87.76;102493.75;5093360;28;20140;-44
2023/04/08 10:23:16;;;;;;;31.85;26.63;;;;;;;10.61;85.60;102495.72;5011063;28;20808;-43
2023/04/08 10:25:45;;;;;;;29.63;25.40;;;;;;;10.73;86.22;102493.63;5076836;28;20074;-42
2023/04/08 10:28:10;;;;;;;31.90;26.80;;;;;;;10.71;83.92;102493.03;5091068;28;20035;-42
2023/04/08 10:30:42;;;;;;;33.63;28.20;;;;;;;10.79;86.11;102491.72;5092076;28;20103;-42
2023/04/08 10:33:20;;;;;;;33.38;27.08;;;;;;;10.72;85.18;102468.97;5090824;28;20052;-43
2023/04/08 10:35:53;;;;;;;32.13;26.42;;;;;;;10.73;84.76;102478.91;5093202;28;20121;-42
2023/04/08 10:38:19;;;;;;;32.78;26.52;;;;;;;10.63;84.29;102473.34;5092414;28;20100;-41
2023/04/08 10:40:44;;;;;;;31.45;25.48;;;;;;;10.70;85.53;102468.41;5091732;28;20028;-44
2023/04/08 10:43:12;;;;;;;32.95;27.38;;;;;;;10.67;83.59;102467.00;5091684;28;20043;-42
2023/04/08 10:45:38;;;;;;;33.10;27.80;;;;;;;10.62;84.21;102466.97;5090991;28;20024;-45
2023/04/08 10:48:14;;;;;;;33.40;26.10;;;;;;;10.56;82.83;102471.63;5091591;28;20035;-43
2023/04/08 10:50:40;;;;;;;34.42;27.80;;;;;;;10.42;83.67;102470.44;5091437;28;20028;-42
2023/04/08 10:53:06;;;;;;;32.80;27.25;;;;;;;10.38;83.56;102466.50;5090835;28;20071;-42
2023/04/08 10:55:32;;;;;;;34.20;28.13;;;;;;;10.35;83.90;102459.56;5092917;28;20059;-42
2023/04/08 10:58:08;;;;;;;33.50;27.67;;;;;;;10.40;83.77;102465.13;5071125;28;20037;-42
2023/04/08 11:00:38;;;;;;;31.88;27.60;;;;;;;10.27;83.77;102432.38;5073196;28;20028;-42
2023/04/08 11:03:06;;;;;;;32.40;27.05;;;;;;;10.38;83.45;102458.22;5092912;28;20063;-42
2023/04/08 11:05:32;;;;;;;32.22;26.67;;;;;;;10.42;84.32;102462.13;5092529;28;20122;-44
2023/04/08 11:07:58;;;;;;;32.15;27.10;;;;;;;10.48;84.29;102463.81;5092715;28;20028;-44
2023/04/08 11:10:25;;;;;;;32.78;26.20;;;;;;;10.58;83.25;102463.06;5092636;28;20035;-44